CNH3 weather

CLOSED Durham (Mulock) Airport
Durham, Ontario, Canada

Public forecast

Using degrees Celsius for public forecast. Weather courtesy of forecast.io.

METAR (pilot weather report)

Closest report is Wiarton Airport, 32.1 nm (59.5 km) NNW. Retrieved 2019/07/21 01:00 UTC (38 minutes ago):

CYVV 210100Z CCA 18009KT 15SM -SHRA BKN040 BKN150 OVC250 21/21 A2975 RMK SC5AS2CI1 CVCTV CLD EMBD WND ESTD SLP074 DENSITY ALT 1800FT

TAF (pilot weather forecast)

Closest forecast is Wiarton Airport, 32.1 nm (59.5 km) NNW. Retrieved 2019/07/20 20:00 UTC (6 hours ago):

TAF CYVV 201942Z 2020/2023 26010G20KT P6SM BKN040 OVC150 FM202100 28010G20KT P6SM BKN040 PROB30 2021/2023 VRB15G30KT 1SM +TSRA BR BKN012 OVC030CB RMK NXT FCST WILL BE ISSUED AT 211045Z